createdAt,value
2023-04-29T00:01:44.639Z,70.28
2023-04-29T00:04:11.863Z,72.72
2023-04-29T00:06:39.025Z,66.47
2023-04-29T00:09:06.187Z,60.78
2023-04-29T00:11:33.610Z,49.03
2023-04-29T00:14:01.643Z,53.10
2023-04-29T00:16:28.742Z,58.05
2023-04-29T00:18:55.916Z,54.42
2023-04-29T00:21:23.069Z,58.38
2023-04-29T00:23:50.254Z,59.70
2023-04-29T00:26:17.319Z,55.03
2023-04-29T00:28:44.398Z,59.20
2023-04-29T00:31:11.692Z,55.17
2023-04-29T00:33:39.957Z,52.03
2023-04-29T00:36:08.760Z,52.28
2023-04-29T00:38:35.859Z,48.13
2023-04-29T00:41:03.733Z,52.78
2023-04-29T00:43:31.345Z,53.97
2023-04-29T00:45:58.703Z,52.22
2023-04-29T00:48:26.935Z,48.05
2023-04-29T00:50:53.996Z,47.40
2023-04-29T00:53:23.257Z,50.22
2023-04-29T00:55:51.904Z,51.90
2023-04-29T00:58:20.216Z,40.63
2023-04-29T01:00:47.678Z,46.95
2023-04-29T01:03:15.250Z,49.75
2023-04-29T01:05:42.681Z,43.67
2023-04-29T01:08:27.544Z,61.30
2023-04-29T01:11:09.730Z,41.15
2023-04-29T01:14:01.601Z,46.65
2023-04-29T01:16:41.406Z,45.42
2023-04-29T01:19:50.655Z,55.95
2023-04-29T01:22:19.027Z,51.05
2023-04-29T01:24:46.510Z,50.10
2023-04-29T01:27:53.258Z,51.13
2023-04-29T01:31:09.878Z,54.63
2023-04-29T01:33:51.058Z,51.78
2023-04-29T01:36:54.195Z,48.40
2023-04-29T01:39:46.104Z,71.97
2023-04-29T01:42:26.886Z,56.45
2023-04-29T01:44:56.963Z,55.78
2023-04-29T01:47:24.250Z,58.47
2023-04-29T01:49:51.699Z,49.75
2023-04-29T01:52:18.969Z,47.85
2023-04-29T01:54:46.391Z,53.90
2023-04-29T01:57:13.548Z,47.10
2023-04-29T01:59:41.108Z,58.88
2023-04-29T02:02:10.234Z,46.13
2023-04-29T02:04:37.582Z,47.00
2023-04-29T02:07:07.596Z,51.28
2023-04-29T02:09:35.010Z,49.95
2023-04-29T02:12:04.795Z,52.40
2023-04-29T02:14:32.274Z,51.63
2023-04-29T02:16:59.663Z,54.85
2023-04-29T02:19:26.993Z,48.22
2023-04-29T02:21:54.088Z,53.20
2023-04-29T02:24:21.605Z,43.78
2023-04-29T02:26:48.731Z,54.22
2023-04-29T02:29:15.796Z,54.13
2023-04-29T02:31:42.896Z,46.28
2023-04-29T02:34:10.002Z,50.35
2023-04-29T02:36:37.105Z,50.05
2023-04-29T02:39:04.864Z,50.25
2023-04-29T02:41:31.992Z,50.45
2023-04-29T02:43:59.084Z,48.05
2023-04-29T02:46:26.279Z,49.63
2023-04-29T02:48:53.587Z,46.30
2023-04-29T02:51:20.665Z,56.67
2023-04-29T02:53:47.763Z,44.00
2023-04-29T02:56:14.881Z,46.72
2023-04-29T02:58:42.508Z,49.63
2023-04-29T03:01:09.655Z,52.25
2023-04-29T03:03:36.976Z,46.60
2023-04-29T03:06:04.872Z,52.45
2023-04-29T03:08:32.081Z,39.22
2023-04-29T03:10:59.631Z,45.42
2023-04-29T03:13:26.762Z,51.95
2023-04-29T03:15:54.184Z,48.58
2023-04-29T03:18:21.290Z,46.10
2023-04-29T03:20:48.346Z,41.42
2023-04-29T03:23:15.533Z,42.80
2023-04-29T03:25:42.685Z,46.63
2023-04-29T03:28:09.775Z,44.95
2023-04-29T03:30:36.932Z,37.65
2023-04-29T03:33:04.351Z,42.80
2023-04-29T03:35:31.616Z,38.85
2023-04-29T03:37:58.695Z,39.05
2023-04-29T03:40:25.797Z,43.53
2023-04-29T03:42:52.876Z,44.38
2023-04-29T03:45:19.969Z,43.65
2023-04-29T05:05:07.489Z,40.00
2023-04-29T05:07:36.185Z,45.30
2023-04-29T05:10:04.229Z,41.65
2023-04-29T05:12:32.161Z,45.30
2023-04-29T05:14:59.321Z,44.35
2023-04-29T05:17:26.514Z,41.92
2023-04-29T05:19:53.848Z,53.72
2023-04-29T05:22:21.112Z,45.78
2023-04-29T05:24:53.043Z,52.30
2023-04-29T05:27:20.218Z,51.90
2023-04-29T05:29:47.512Z,43.50
2023-04-29T05:32:14.651Z,36.35
2023-04-29T05:34:41.858Z,39.45
2023-04-29T05:37:08.985Z,48.97
2023-04-29T05:39:36.154Z,53.85
2023-04-29T05:42:03.866Z,41.95
2023-04-29T05:44:31.106Z,47.13
2023-04-29T05:46:58.182Z,48.63
2023-04-29T05:49:25.254Z,48.35
2023-04-29T05:51:52.517Z,42.75
2023-04-29T05:54:19.589Z,46.53
2023-04-29T05:56:46.736Z,35.55
2023-04-29T05:59:13.795Z,48.40
2023-04-29T06:01:40.863Z,42.08
2023-04-29T06:04:08.468Z,39.08
2023-04-29T06:06:35.956Z,40.63
2023-04-29T06:09:04.022Z,33.40
2023-04-29T06:11:32.921Z,47.60
2023-04-29T06:13:59.982Z,40.72
2023-04-29T06:16:27.211Z,35.97
2023-04-29T06:18:54.345Z,32.35
2023-04-29T06:21:21.471Z,40.70
2023-04-29T06:23:48.571Z,34.20
2023-04-29T06:26:15.731Z,35.85
2023-04-29T06:28:42.948Z,40.38
2023-04-29T06:31:10.196Z,36.65
2023-04-29T06:33:37.677Z,26.42
2023-04-29T06:36:05.471Z,29.23
2023-04-29T06:38:32.839Z,37.83
2023-04-29T06:41:01.206Z,32.40
2023-04-29T06:43:28.546Z,25.63
2023-04-29T06:45:55.694Z,27.38
2023-04-29T06:48:23.217Z,26.52
2023-04-29T06:50:58.343Z,20.63
2023-04-29T06:53:25.443Z,25.58
2023-04-29T06:55:52.554Z,28.13
2023-04-29T06:58:20.331Z,29.35
2023-04-29T07:00:49.978Z,21.42
2023-04-29T07:03:18.802Z,20.55
2023-04-29T07:05:46.153Z,24.20
2023-04-29T07:08:13.906Z,29.35
2023-04-29T07:10:41.895Z,22.25
2023-04-29T07:13:09.144Z,18.10
2023-04-29T07:15:37.183Z,20.67
2023-04-29T07:18:06.210Z,20.90
2023-04-29T07:20:36.571Z,22.83
2023-04-29T07:23:03.713Z,25.02
2023-04-29T07:25:31.235Z,21.33
2023-04-29T07:27:58.323Z,26.42
2023-04-29T07:30:25.447Z,24.83
2023-04-29T07:32:52.651Z,25.40
2023-04-29T07:35:19.863Z,24.70
2023-04-29T07:37:47.145Z,22.92
2023-04-29T07:40:14.435Z,19.23
2023-04-29T07:42:41.545Z,26.10
2023-04-29T07:45:09.223Z,22.92
2023-04-29T07:47:36.809Z,22.92
2023-04-29T07:50:05.569Z,25.58
2023-04-29T07:52:32.919Z,22.02
2023-04-29T07:54:59.975Z,22.50
2023-04-29T07:57:27.068Z,18.08
2023-04-29T07:59:54.704Z,16.58
2023-04-29T08:02:22.071Z,24.83
2023-04-29T08:04:51.593Z,24.92
2023-04-29T08:07:19.244Z,20.15
2023-04-29T08:09:46.517Z,24.48
2023-04-29T08:12:13.584Z,28.73
2023-04-29T08:14:40.780Z,20.40
2023-04-29T08:17:08.951Z,22.38
2023-04-29T08:19:36.117Z,22.98
2023-04-29T08:22:04.439Z,16.30
2023-04-29T08:24:33.895Z,21.90
2023-04-29T08:27:02.002Z,21.17
2023-04-29T08:29:34.758Z,21.63
2023-04-29T08:32:05.245Z,20.77
2023-04-29T08:34:34.137Z,20.17
2023-04-29T08:37:01.260Z,20.95
2023-04-29T08:39:30.886Z,23.50
2023-04-29T08:41:59.551Z,22.45
2023-04-29T08:44:27.794Z,17.92
2023-04-29T08:46:54.971Z,24.63
2023-04-29T08:49:22.147Z,21.90
2023-04-29T08:51:51.808Z,20.42
2023-04-29T08:54:18.918Z,20.23
2023-04-29T08:56:50.294Z,21.05
2023-04-29T08:59:20.504Z,18.38
2023-04-29T09:01:52.119Z,23.55
2023-04-29T09:06:47.032Z,23.08
2023-04-29T09:09:15.442Z,21.77
2023-04-29T09:11:42.543Z,21.02
2023-04-29T09:14:09.705Z,23.08
2023-04-29T09:16:38.537Z,17.27
2023-04-29T09:19:05.816Z,19.80
2023-04-29T09:21:33.559Z,23.08
2023-04-29T09:24:03.033Z,25.65
2023-04-29T09:26:49.863Z,18.17
2023-04-29T09:29:18.664Z,17.10
2023-04-29T09:31:46.480Z,16.88
2023-04-29T09:34:14.638Z,18.80
2023-04-29T09:36:51.391Z,29.55
2023-04-29T09:39:21.243Z,17.15
2023-04-29T09:41:53.970Z,22.90
2023-04-29T09:44:31.289Z,23.90
2023-04-29T09:47:05.378Z,21.02
2023-04-29T09:49:41.287Z,18.15
2023-04-29T09:52:14.065Z,21.25
2023-04-29T09:54:43.523Z,18.60
2023-04-29T09:57:12.856Z,19.85
2023-04-29T09:59:41.596Z,14.90
2023-04-29T10:02:18.957Z,17.77
2023-04-29T10:04:54.258Z,18.92
2023-04-29T10:07:21.874Z,17.90
2023-04-29T10:09:49.332Z,25.58
2023-04-29T10:12:21.271Z,23.10
2023-04-29T10:15:03.987Z,18.98
2023-04-29T10:17:47.418Z,18.35
2023-04-29T10:20:18.446Z,18.70
2023-04-29T10:22:58.013Z,21.77
2023-04-29T10:25:28.269Z,16.17
2023-04-29T10:27:56.499Z,20.05
2023-04-29T10:30:23.863Z,27.80
2023-04-29T10:32:52.773Z,15.52
2023-04-29T10:35:23.846Z,17.73
2023-04-29T10:37:51.539Z,19.15
2023-04-29T10:40:50.484Z,18.50
2023-04-29T10:43:26.684Z,19.30
2023-04-29T10:46:27.029Z,17.48
2023-04-29T10:49:02.609Z,23.25
2023-04-29T10:51:45.259Z,22.33
2023-04-29T10:54:17.103Z,17.38
2023-04-29T10:56:53.423Z,20.50
2023-04-29T10:59:43.723Z,21.02
2023-04-29T11:02:11.276Z,24.95
2023-04-29T11:05:11.352Z,24.05
2023-04-29T11:07:38.504Z,19.55
2023-04-29T11:10:07.310Z,19.60
2023-04-29T11:12:34.493Z,14.30
2023-04-29T11:15:05.648Z,15.90
2023-04-29T11:17:37.974Z,16.65
2023-04-29T11:20:12.574Z,14.02
2023-04-29T11:22:40.300Z,19.40
2023-04-29T11:25:09.285Z,17.38
2023-04-29T11:27:42.600Z,16.58
2023-04-29T11:30:10.362Z,18.65
2023-04-29T11:32:40.659Z,20.77
2023-04-29T11:35:15.764Z,14.60
2023-04-29T11:37:45.697Z,15.10
2023-04-29T11:40:14.119Z,24.92
2023-04-29T11:42:49.394Z,20.25
2023-04-29T11:45:20.260Z,18.95
2023-04-29T11:47:48.627Z,25.40
2023-04-29T11:50:20.014Z,21.27
2023-04-29T11:52:48.931Z,18.88
2023-04-29T11:55:17.647Z,23.67
2023-04-29T11:57:44.803Z,25.73
2023-04-29T12:00:13.816Z,20.10
2023-04-29T12:02:46.681Z,18.52
2023-04-29T12:05:16.376Z,22.15
2023-04-29T12:07:44.361Z,17.15
2023-04-29T12:10:12.957Z,21.88
2023-04-29T12:12:47.571Z,21.15
2023-04-29T12:15:15.220Z,16.20
2023-04-29T12:17:43.587Z,24.20
2023-04-29T12:20:12.316Z,19.83
2023-04-29T12:22:39.914Z,26.63
2023-04-29T12:25:08.194Z,24.20
2023-04-29T12:27:37.073Z,15.63
2023-04-29T12:30:09.811Z,17.48
2023-04-29T12:32:37.354Z,19.23
2023-04-29T12:35:04.931Z,23.70
2023-04-29T12:37:33.415Z,18.88
2023-04-29T12:40:00.876Z,16.20
2023-04-29T12:42:34.383Z,11.32
2023-04-29T12:45:02.722Z,20.67
2023-04-29T12:47:35.063Z,14.82
2023-04-29T12:50:03.066Z,13.57
2023-04-29T12:52:30.463Z,19.35
2023-04-29T12:54:58.039Z,18.38
2023-04-29T12:57:26.635Z,18.75
2023-04-29T12:59:53.750Z,12.02
2023-04-29T13:02:21.072Z,16.35
2023-04-29T13:04:48.440Z,16.65
2023-04-29T13:07:15.987Z,12.75
2023-04-29T13:09:43.081Z,17.48
2023-04-29T13:12:10.243Z,13.07
2023-04-29T13:14:37.490Z,15.48
2023-04-29T13:17:04.848Z,20.50
2023-04-29T13:19:48.122Z,15.55
2023-04-29T13:22:18.360Z,13.98
2023-04-29T13:24:46.101Z,11.82
2023-04-29T13:27:13.327Z,14.52
2023-04-29T13:29:40.589Z,13.07
2023-04-29T13:32:09.133Z,17.98
2023-04-29T13:34:36.385Z,16.42
2023-04-29T13:37:03.962Z,10.20
2023-04-29T13:39:31.720Z,19.63
2023-04-29T13:41:59.779Z,10.63
2023-04-29T13:44:34.410Z,9.35
2023-04-29T13:47:16.309Z,11.18
2023-04-29T13:50:16.903Z,19.67
2023-04-29T14:00:19.343Z,11.48
2023-04-29T14:05:23.141Z,21.00
2023-04-29T14:07:50.550Z,11.60
2023-04-29T14:10:17.684Z,13.43
2023-04-29T14:12:44.857Z,15.27
2023-04-29T14:15:12.364Z,8.98
2023-04-29T14:17:39.618Z,11.85
2023-04-29T14:20:07.934Z,19.48
2023-04-29T14:22:35.020Z,11.70
2023-04-29T14:25:02.568Z,12.32
2023-04-29T14:27:29.671Z,8.55
2023-04-29T14:29:56.734Z,8.40
2023-04-29T14:32:24.023Z,11.45
2023-04-29T14:34:51.264Z,9.38
2023-04-29T14:37:18.509Z,15.70
2023-04-29T14:39:45.633Z,9.73
2023-04-29T14:42:13.811Z,8.45
2023-04-29T14:44:41.074Z,11.45
2023-04-29T14:47:09.178Z,8.98
2023-04-29T14:49:36.354Z,13.40
2023-04-29T14:52:04.088Z,17.58
2023-04-29T14:54:31.807Z,10.02
2023-04-29T14:56:58.938Z,14.98
2023-04-29T14:59:26.182Z,7.50
2023-04-29T15:01:53.322Z,22.75
2023-04-29T15:04:20.475Z,9.18
2023-04-29T15:06:47.724Z,7.43
2023-04-29T15:09:14.780Z,11.25
2023-04-29T15:11:42.308Z,10.48
2023-04-29T15:14:09.385Z,8.43
2023-04-29T15:16:36.542Z,8.40
2023-04-29T15:19:04.068Z,10.27
2023-04-29T15:21:32.522Z,11.40
2023-04-29T15:23:59.600Z,10.40
2023-04-29T15:26:27.602Z,10.85
2023-04-29T15:28:54.754Z,9.13
2023-04-29T15:31:24.280Z,12.60
2023-04-29T15:33:55.647Z,10.43
2023-04-29T15:36:31.521Z,14.98
2023-04-29T15:38:59.240Z,10.18
2023-04-29T15:41:26.704Z,11.25
2023-04-29T15:43:55.070Z,10.32
2023-04-29T15:46:22.312Z,7.15
2023-04-29T15:48:49.595Z,9.27
2023-04-29T15:51:16.879Z,8.25
2023-04-29T15:53:44.762Z,8.95
2023-04-29T15:56:12.195Z,9.20
2023-04-29T15:58:39.357Z,7.05
2023-04-29T16:01:06.532Z,12.75
2023-04-29T16:03:33.976Z,9.55
2023-04-29T16:06:01.215Z,11.10
2023-04-29T16:08:28.356Z,11.15
2023-04-29T16:10:55.524Z,14.40
2023-04-29T16:13:22.711Z,15.38
2023-04-29T16:15:49.845Z,10.35
2023-04-29T16:18:18.056Z,7.40
2023-04-29T16:20:45.732Z,9.80
2023-04-29T16:23:12.833Z,11.35
2023-04-29T16:25:42.034Z,5.97
2023-04-29T16:28:09.200Z,8.82
2023-04-29T16:30:36.457Z,9.57
2023-04-29T16:33:04.037Z,7.47
2023-04-29T16:35:31.228Z,12.73
2023-04-29T16:37:58.437Z,11.60
2023-04-29T16:40:25.671Z,10.20
2023-04-29T16:42:53.624Z,14.70
2023-04-29T16:45:23.622Z,7.70
2023-04-29T16:47:51.213Z,8.75
2023-04-29T16:50:18.935Z,10.75
2023-04-29T16:52:46.140Z,11.65
2023-04-29T16:55:13.623Z,10.95
2023-04-29T16:57:40.779Z,8.27
2023-04-29T17:00:11.987Z,9.68
2023-04-29T17:02:43.348Z,12.52
2023-04-29T17:05:11.198Z,16.38
2023-04-29T17:07:38.478Z,18.33
2023-04-29T17:10:06.748Z,8.90
2023-04-29T17:12:36.727Z,13.43
2023-04-29T17:15:04.759Z,12.35
2023-04-29T17:17:32.469Z,12.57
2023-04-29T17:19:59.686Z,12.55
2023-04-29T17:22:27.077Z,16.17
2023-04-29T17:24:54.201Z,12.55
2023-04-29T17:27:21.290Z,17.30
2023-04-29T17:29:48.368Z,18.40
2023-04-29T17:32:17.560Z,20.70
2023-04-29T17:34:44.837Z,14.65
2023-04-29T17:37:11.943Z,21.98
2023-04-29T17:39:40.284Z,16.38
2023-04-29T17:42:07.658Z,19.15
2023-04-29T17:44:35.904Z,14.18
2023-04-29T17:47:03.152Z,15.32
2023-04-29T17:49:30.650Z,16.98
2023-04-29T17:51:57.762Z,18.95
2023-04-29T17:54:26.342Z,18.70
2023-04-29T17:56:53.427Z,18.50
2023-04-29T17:59:20.476Z,18.02
2023-04-29T18:01:47.973Z,16.58
2023-04-29T18:04:15.058Z,14.02
2023-04-29T18:06:42.229Z,17.95
2023-04-29T18:09:09.757Z,15.85
2023-04-29T18:11:36.869Z,17.48
2023-04-29T18:14:04.928Z,16.75
2023-04-29T18:16:32.660Z,13.75
2023-04-29T18:18:59.809Z,18.35
2023-04-29T18:21:28.319Z,22.92
2023-04-29T18:23:56.373Z,17.05
2023-04-29T18:26:23.989Z,24.13
2023-04-29T18:28:51.319Z,16.40
2023-04-29T18:31:19.163Z,16.75
2023-04-29T18:33:46.563Z,17.55
2023-04-29T18:36:14.540Z,24.10
2023-04-29T18:38:41.931Z,27.15
2023-04-29T18:41:09.172Z,20.27
2023-04-29T18:43:36.780Z,16.90
2023-04-29T18:46:04.073Z,17.23
2023-04-29T18:48:32.038Z,24.30
2023-04-29T18:51:04.499Z,21.08
2023-04-29T18:53:35.067Z,15.57
2023-04-29T18:56:05.320Z,18.30
2023-04-29T18:58:32.750Z,22.70
2023-04-29T19:01:00.356Z,17.58
2023-04-29T19:03:27.585Z,16.25
2023-04-29T19:05:54.785Z,17.90
2023-04-29T19:08:21.954Z,24.83
2023-04-29T19:10:49.046Z,15.63
2023-04-29T19:13:16.425Z,15.27
2023-04-29T19:15:43.895Z,23.08
2023-04-29T19:18:11.001Z,17.95
2023-04-29T19:20:38.151Z,22.45
2023-04-29T19:23:05.835Z,16.00
2023-04-29T19:25:32.967Z,21.35
2023-04-29T19:28:00.646Z,20.63
2023-04-29T19:30:27.738Z,20.70
2023-04-29T19:32:54.873Z,19.25
2023-04-29T19:35:22.094Z,16.92
2023-04-29T19:37:49.178Z,23.63
2023-04-29T19:40:16.573Z,17.67
2023-04-29T19:42:43.671Z,18.77
2023-04-29T19:45:12.973Z,15.55
2023-04-29T19:47:40.153Z,16.67
2023-04-29T19:50:07.930Z,16.30
2023-04-29T19:52:35.136Z,19.90
2023-04-29T19:55:02.596Z,16.60
2023-04-29T19:57:30.811Z,16.95
2023-04-29T19:59:57.950Z,18.15
2023-04-29T20:02:25.096Z,18.90
2023-04-29T20:04:52.332Z,28.10
2023-04-29T20:07:19.528Z,20.02
2023-04-29T20:09:46.694Z,16.80
2023-04-29T20:12:13.936Z,20.00
2023-04-29T20:14:41.395Z,18.17
2023-04-29T20:17:08.798Z,18.45
2023-04-29T20:19:35.845Z,17.17
2023-04-29T20:22:02.980Z,17.70
2023-04-29T20:24:30.230Z,21.67
2023-04-29T20:26:57.439Z,27.95
2023-04-29T20:29:25.080Z,21.13
2023-04-29T20:31:52.343Z,23.23
2023-04-29T20:34:19.489Z,36.63
2023-04-29T20:36:46.607Z,25.48
2023-04-29T20:39:13.674Z,21.55
2023-04-29T20:41:40.743Z,26.10
2023-04-29T20:44:07.913Z,27.83
2023-04-29T20:46:35.125Z,25.05
2023-04-29T21:03:30.202Z,29.33
2023-04-29T21:05:57.743Z,26.83
2023-04-29T21:08:24.902Z,26.38
2023-04-29T21:10:52.146Z,20.77
2023-04-29T21:13:19.288Z,27.30
2023-04-29T21:15:49.595Z,25.73
2023-04-29T21:18:17.009Z,25.58
2023-04-29T21:20:44.394Z,28.48
2023-04-29T21:23:11.457Z,25.90
2023-04-29T21:25:38.582Z,24.48
2023-04-29T21:28:05.762Z,26.13
2023-04-29T21:30:32.989Z,23.70
2023-04-29T21:33:00.460Z,27.05
2023-04-29T21:35:27.882Z,20.95
2023-04-29T21:37:55.246Z,25.67
2023-04-29T21:40:22.925Z,27.00
2023-04-29T21:42:51.261Z,25.77
2023-04-29T21:45:18.365Z,22.30
2023-04-29T21:47:45.725Z,19.40
2023-04-29T21:50:13.110Z,24.23
2023-04-29T21:52:40.283Z,24.00
2023-04-29T21:55:07.709Z,27.45
2023-04-29T21:57:44.124Z,20.73
2023-04-29T22:00:20.825Z,27.20
2023-04-29T22:02:48.009Z,29.83
2023-04-29T22:05:15.180Z,21.02
2023-04-29T22:07:42.927Z,19.48
2023-04-29T22:10:10.322Z,22.33
2023-04-29T22:12:37.396Z,27.80
2023-04-29T22:15:07.069Z,28.48
2023-04-29T22:20:04.472Z,22.17
2023-04-29T22:22:34.204Z,27.92
2023-04-29T22:25:01.769Z,28.85
2023-04-29T22:27:28.853Z,27.33
2023-04-29T22:29:56.373Z,24.30
2023-04-29T22:32:24.037Z,20.60
2023-04-29T22:34:51.284Z,27.92
2023-04-29T22:37:18.667Z,19.15
2023-04-29T22:39:46.183Z,20.63
2023-04-29T22:42:13.259Z,24.00
2023-04-29T22:44:40.509Z,27.58
2023-04-29T22:47:07.634Z,21.17
2023-04-29T22:49:34.722Z,21.73
2023-04-29T22:52:02.713Z,18.98
2023-04-29T22:54:29.886Z,21.92
2023-04-29T22:56:58.373Z,19.02
2023-04-29T22:59:25.460Z,22.30
2023-04-29T23:01:52.715Z,16.42
2023-04-29T23:04:20.468Z,17.92
2023-04-29T23:06:47.681Z,23.63
2023-04-29T23:09:14.869Z,17.65
2023-04-29T23:11:42.007Z,21.00
2023-04-29T23:14:09.073Z,24.20
2023-04-29T23:16:36.134Z,22.52
2023-04-29T23:19:04.479Z,20.20
2023-04-29T23:21:34.236Z,24.45
2023-04-29T23:24:01.910Z,22.45
2023-04-29T23:26:28.968Z,26.30
2023-04-29T23:28:56.067Z,17.25
2023-04-29T23:31:23.226Z,16.40
2023-04-29T23:33:50.450Z,27.73
2023-04-29T23:36:17.628Z,19.52
2023-04-29T23:38:44.682Z,23.98
2023-04-29T23:41:11.753Z,21.05
2023-04-29T23:43:39.807Z,15.48
2023-04-29T23:46:06.964Z,21.05
2023-04-29T23:48:34.336Z,25.40
2023-04-29T23:51:04.410Z,19.42
2023-04-29T23:53:32.294Z,22.20
2023-04-29T23:55:59.461Z,21.15
2023-04-29T23:58:26.626Z,14.07
